Flugplatz Niederstetten Airport

Bericht für ETHN

vom 11.07. um 08:20 UTC

Wind 6 kt aus 330°

Sichtweite 10 km oder mehr

aufgelockert bewölkt in 2500 ft

Temperatur 15.0°C

Taupunkt 9.0°C

Luftfeuchtigkeit 67%

Luftdruck 1022 hPa

ETHN 110820Z 33006KT 9999 SCT025 15/09 Q1022 BLU+
Keine Prognose (TAF) verfügbar.
Impressum